Time;durP1;ratioP1;P1;durP2;ratioP2;P2;SDS_P1;SDS_P2;PMS_P1;PMS_P2;Temp;Humidity;BMP_temperature;BMP_pressure;BME280_temperature;BME280_humidity;BME280_pressure;Samples;Min_cycle;Max_cycle;Signal;HPM_P1;HPM_P2
2022/10/08 00:00:12;;;;;;;;;;;;;;;;;;5030479;28;19968;-58
2022/10/08 00:02:38;;;;;;;;;;;;;;;;;;5029977;28;19984;-57
2022/10/08 00:05:04;;;;;;;;;;;;;;;;;;5030140;28;19927;-57
2022/10/08 00:07:29;;;;;;;;;;;;;;;;;;5030643;28;19917;-57
2022/10/08 00:09:55;;;;;;;;;;;;;;;;;;5031098;28;19976;-57
2022/10/08 00:12:21;;;;;;;;;;;;;;;;;;5029947;28;19945;-57
2022/10/08 00:14:47;;;;;;;;;;;;;;;;;;5030420;28;19921;-57
2022/10/08 00:17:13;;;;;;;;;;;;;;;;;;5012066;28;20470;-58
2022/10/08 00:19:39;;;;;;;;;;;;;;;;;;5030573;28;19921;-57
2022/10/08 00:22:05;;;;;;;;;;;;;;;;;;5029999;28;19921;-56
2022/10/08 00:24:31;;;;;;;;;;;;;;;;;;5030148;28;19927;-57
2022/10/08 00:26:59;;;;;;;;;;;;;;;;;;5026707;28;19967;-57
2022/10/08 00:29:25;;;;;;;;;;;;;;;;;;5030218;28;19943;-57
2022/10/08 00:31:51;;;;;;;;;;;;;;;;;;5029485;28;19940;-58
2022/10/08 00:34:17;;;;;;;;;;;;;;;;;;5011812;28;20007;-58
2022/10/08 00:36:43;;;;;;;;;;;;;;;;;;5029810;28;20351;-57
2022/10/08 00:39:09;;;;;;;;;;;;;;;;;;5029659;28;19921;-57
2022/10/08 00:41:36;;;;;;;;;;;;;;;;;;5028944;28;19921;-57
2022/10/08 00:44:02;;;;;;;;;;;;;;;;;;5029548;28;19921;-58
2022/10/08 00:46:28;;;;;;;;;;;;;;;;;;5029439;28;19924;-58
2022/10/08 00:48:54;;;;;;;;;;;;;;;;;;5029708;28;20287;-58
2022/10/08 00:51:20;;;;;;;;;;;;;;;;;;5029366;28;19953;-57
2022/10/08 00:53:46;;;;;;;;;;;;;;;;;;5029100;28;20008;-57
2022/10/08 00:56:12;;;;;;;;;;;;;;;;;;5028681;28;20371;-57
2022/10/08 00:58:38;;;;;;;;;;;;;;;;;;5029253;28;19940;-58
2022/10/08 01:01:04;;;;;;;;;;;;;;;;;;5028185;28;20011;-57
2022/10/08 01:03:30;;;;;;;;;;;;;;;;;;5029089;28;19921;-58
2022/10/08 01:05:56;;;;;;;;;;;;;;;;;;5029358;28;20632;-60
2022/10/08 01:08:22;;;;;;;;;;;;;;;;;;5029659;28;20370;-57
2022/10/08 01:10:48;;;;;;;;;;;;;;;;;;5028480;28;19921;-57
2022/10/08 01:13:14;;;;;;;;;;;;;;;;;;5028672;28;20278;-58
2022/10/08 01:15:40;;;;;;;;;;;;;;;;;;5028791;28;19983;-57
2022/10/08 01:18:06;;;;;;;;;;;;;;;;;;5010930;28;19928;-58
2022/10/08 01:20:32;;;;;;;;;;;;;;;;;;5029316;28;19921;-56
2022/10/08 01:22:58;;;;;;;;;;;;;;;;;;5028625;28;19952;-58
2022/10/08 01:25:33;;;;;;;;;;;;;;;;;;5029116;28;19921;-58
2022/10/08 01:27:59;;;;;;;;;;;;;;;;;;5024880;28;19928;-58
2022/10/08 01:30:26;;;;;;;;;;;;;;;;;;5029331;28;19921;-58
2022/10/08 01:32:52;;;;;;;;;;;;;;;;;;5011883;28;19921;-57
2022/10/08 01:35:19;;;;;;;;;;;;;;;;;;5028895;28;19932;-58
2022/10/08 01:37:45;;;;;;;;;;;;;;;;;;5028388;28;20295;-58
2022/10/08 01:40:11;;;;;;;;;;;;;;;;;;5027659;28;19927;-59
2022/10/08 01:42:38;;;;;;;;;;;;;;;;;;5028806;28;19920;-58
2022/10/08 01:45:04;;;;;;;;;;;;;;;;;;5027337;28;19927;-57
2022/10/08 01:47:30;;;;;;;;;;;;;;;;;;5028532;28;19929;-58
2022/10/08 01:49:56;;;;;;;;;;;;;;;;;;5027768;28;19928;-59
2022/10/08 01:52:22;;;;;;;;;;;;;;;;;;5028966;28;20016;-58
2022/10/08 01:54:49;;;;;;;;;;;;;;;;;;5025333;28;20374;-56
2022/10/08 01:57:15;;;;;;;;;;;;;;;;;;5008875;28;19928;-58
2022/10/08 01:59:41;;;;;;;;;;;;;;;;;;5027264;28;20375;-58
2022/10/08 02:02:07;;;;;;;;;;;;;;;;;;5028030;28;19928;-57
2022/10/08 02:04:34;;;;;;;;;;;;;;;;;;5027651;28;19921;-57
2022/10/08 02:07:00;;;;;;;;;;;;;;;;;;5027888;28;19921;-57
2022/10/08 02:09:25;;;;;;;;;;;;;;;;;;5028531;28;19966;-57
2022/10/08 02:11:51;;;;;;;;;;;;;;;;;;5027661;28;19929;-58
2022/10/08 02:14:17;;;;;;;;;;;;;;;;;;5027568;28;19921;-58
2022/10/08 02:16:44;;;;;;;;;;;;;;;;;;5027145;28;19921;-58
2022/10/08 02:19:10;;;;;;;;;;;;;;;;;;5027522;28;20022;-57
2022/10/08 02:21:36;;;;;;;;;;;;;;;;;;5027973;28;19971;-57
2022/10/08 02:24:02;;;;;;;;;;;;;;;;;;5026597;28;20334;-57
2022/10/08 02:26:28;;;;;;;;;;;;;;;;;;5026750;28;19921;-57
2022/10/08 02:28:54;;;;;;;;;;;;;;;;;;5027882;28;20329;-57
2022/10/08 02:31:20;;;;;;;;;;;;;;;;;;5027497;28;19932;-56
2022/10/08 02:33:46;;;;;;;;;;;;;;;;;;5027271;28;20410;-58
2022/10/08 02:36:12;;;;;;;;;;;;;;;;;;5027635;28;19963;-57
2022/10/08 02:38:38;;;;;;;;;;;;;;;;;;5025692;28;19929;-58
2022/10/08 02:41:04;;;;;;;;;;;;;;;;;;5008371;28;19928;-58
2022/10/08 02:43:30;;;;;;;;;;;;;;;;;;5027390;28;19928;-57
2022/10/08 02:45:56;;;;;;;;;;;;;;;;;;5026422;28;19939;-58
2022/10/08 02:48:22;;;;;;;;;;;;;;;;;;5027521;28;19967;-57
2022/10/08 02:50:48;;;;;;;;;;;;;;;;;;5009591;28;19944;-57
2022/10/08 02:53:14;;;;;;;;;;;;;;;;;;5026352;28;19920;-58
2022/10/08 02:55:40;;;;;;;;;;;;;;;;;;5026465;28;20011;-57
2022/10/08 02:58:06;;;;;;;;;;;;;;;;;;5027041;28;19996;-58
2022/10/08 03:00:34;;;;;;;;;;;;;;;;;;5027323;28;19928;-57
2022/10/08 03:03:00;;;;;;;;;;;;;;;;;;5026585;28;20374;-58
2022/10/08 03:05:27;;;;;;;;;;;;;;;;;;5027397;28;19928;-59
2022/10/08 03:07:53;;;;;;;;;;;;;;;;;;5026466;28;20465;-57
2022/10/08 03:10:24;;;;;;;;;;;;;;;;;;5026060;28;20370;-58
2022/10/08 03:12:50;;;;;;;;;;;;;;;;;;5026927;28;20379;-58
2022/10/08 03:15:16;;;;;;;;;;;;;;;;;;5026540;28;19924;-58
2022/10/08 03:17:43;;;;;;;;;;;;;;;;;;5026946;28;19921;-57
2022/10/08 03:20:09;;;;;;;;;;;;;;;;;;5027185;28;19995;-58
2022/10/08 03:22:35;;;;;;;;;;;;;;;;;;5027445;28;20082;-58
2022/10/08 03:25:01;;;;;;;;;;;;;;;;;;5026097;28;19928;-57
2022/10/08 03:27:27;;;;;;;;;;;;;;;;;;5027015;28;19995;-57
2022/10/08 03:29:56;;;;;;;;;;;;;;;;;;5027587;28;20374;-57
2022/10/08 03:32:22;;;;;;;;;;;;;;;;;;5027197;28;19940;-57
2022/10/08 03:34:48;;;;;;;;;;;;;;;;;;5026330;28;20054;-58
2022/10/08 03:37:14;;;;;;;;;;;;;;;;;;5026373;28;20014;-58
2022/10/08 03:39:41;;;;;;;;;;;;;;;;;;5026863;28;19980;-56
2022/10/08 03:42:07;;;;;;;;;;;;;;;;;;5024297;28;19921;-56
2022/10/08 03:44:33;;;;;;;;;;;;;;;;;;5026440;28;19928;-58
2022/10/08 03:46:59;;;;;;;;;;;;;;;;;;5024865;28;19925;-58
2022/10/08 03:49:25;;;;;;;;;;;;;;;;;;5027359;28;19921;-57
2022/10/08 03:51:51;;;;;;;;;;;;;;;;;;5009146;28;19944;-58
2022/10/08 03:54:17;;;;;;;;;;;;;;;;;;5026187;28;20371;-57
2022/10/08 03:56:43;;;;;;;;;;;;;;;;;;5026114;28;19928;-58
2022/10/08 03:59:09;;;;;;;;;;;;;;;;;;5026105;28;19968;-58
2022/10/08 04:01:35;;;;;;;;;;;;;;;;;;5026351;28;19929;-58
2022/10/08 04:04:01;;;;;;;;;;;;;;;;;;5024900;28;19921;-57
2022/10/08 04:06:27;;;;;;;;;;;;;;;;;;5008514;28;20032;-57
2022/10/08 04:08:59;;;;;;;;;;;;;;;;;;5026972;28;19964;-58
2022/10/08 04:11:25;;;;;;;;;;;;;;;;;;5023501;28;20004;-58
2022/10/08 04:13:51;;;;;;;;;;;;;;;;;;5026716;28;20017;-58
2022/10/08 04:16:17;;;;;;;;;;;;;;;;;;5026227;28;19921;-57
2022/10/08 04:18:43;;;;;;;;;;;;;;;;;;5026742;28;19925;-58
2022/10/08 04:21:09;;;;;;;;;;;;;;;;;;5029805;28;19932;-58
2022/10/08 04:23:35;;;;;;;;;;;;;;;;;;5030176;28;19921;-58
2022/10/08 04:26:01;;;;;;;;;;;;;;;;;;5028997;28;19928;-57
2022/10/08 04:28:27;;;;;;;;;;;;;;;;;;5029485;28;20020;-58
2022/10/08 04:30:53;;;;;;;;;;;;;;;;;;5012824;28;20349;-58
2022/10/08 04:33:19;;;;;;;;;;;;;;;;;;5027096;28;19978;-58
2022/10/08 04:35:45;;;;;;;;;;;;;;;;;;5030086;28;19943;-58
2022/10/08 04:38:11;;;;;;;;;;;;;;;;;;5029385;28;19928;-57
2022/10/08 04:40:37;;;;;;;;;;;;;;;;;;5028656;28;20063;-58
2022/10/08 04:43:03;;;;;;;;;;;;;;;;;;5029137;28;20386;-57
2022/10/08 04:45:29;;;;;;;;;;;;;;;;;;5029703;28;19925;-59
2022/10/08 04:47:55;;;;;;;;;;;;;;;;;;5029964;28;20342;-57
2022/10/08 04:50:21;;;;;;;;;;;;;;;;;;5028453;28;19928;-57
2022/10/08 04:52:47;;;;;;;;;;;;;;;;;;5029337;28;19987;-57
2022/10/08 04:55:13;;;;;;;;;;;;;;;;;;5028262;28;19927;-58
2022/10/08 04:57:39;;;;;;;;;;;;;;;;;;5029613;28;19925;-57
2022/10/08 05:00:05;;;;;;;;;;;;;;;;;;5029712;28;19964;-57
2022/10/08 05:02:31;;;;;;;;;;;;;;;;;;5029218;28;20298;-58
2022/10/08 05:04:57;;;;;;;;;;;;;;;;;;5029229;28;19925;-58
2022/10/08 05:07:23;;;;;;;;;;;;;;;;;;5029710;28;19921;-58
2022/10/08 05:09:49;;;;;;;;;;;;;;;;;;5028340;28;19964;-57
2022/10/08 05:12:15;;;;;;;;;;;;;;;;;;5028690;28;20022;-58
2022/10/08 05:14:41;;;;;;;;;;;;;;;;;;5029120;28;20005;-57
2022/10/08 05:17:07;;;;;;;;;;;;;;;;;;5028777;28;19951;-57
2022/10/08 05:19:34;;;;;;;;;;;;;;;;;;5029050;28;19921;-57
2022/10/08 05:22:00;;;;;;;;;;;;;;;;;;5028021;28;20000;-58
2022/10/08 05:24:26;;;;;;;;;;;;;;;;;;5028481;28;20008;-57
2022/10/08 05:26:52;;;;;;;;;;;;;;;;;;5028468;28;19928;-58
2022/10/08 05:29:18;;;;;;;;;;;;;;;;;;5028376;28;19927;-57
2022/10/08 05:31:44;;;;;;;;;;;;;;;;;;5027910;28;19921;-58
2022/10/08 05:34:10;;;;;;;;;;;;;;;;;;5010773;28;19944;-58
2022/10/08 05:36:36;;;;;;;;;;;;;;;;;;5028853;28;19921;-57
2022/10/08 05:39:02;;;;;;;;;;;;;;;;;;5009785;28;19983;-58
2022/10/08 05:41:28;;;;;;;;;;;;;;;;;;5027933;28;19944;-58
2022/10/08 05:43:54;;;;;;;;;;;;;;;;;;5027699;28;20371;-57
2022/10/08 05:46:20;;;;;;;;;;;;;;;;;;5029099;28;20004;-58
2022/10/08 05:48:46;;;;;;;;;;;;;;;;;;5029316;28;19929;-58
2022/10/08 05:51:12;;;;;;;;;;;;;;;;;;5028568;28;19921;-57
2022/10/08 05:53:38;;;;;;;;;;;;;;;;;;5028999;28;19928;-58
2022/10/08 05:56:04;;;;;;;;;;;;;;;;;;5028338;28;19928;-57
2022/10/08 05:58:30;;;;;;;;;;;;;;;;;;5029165;28;20019;-58
2022/10/08 06:00:56;;;;;;;;;;;;;;;;;;5029167;28;20425;-58
2022/10/08 06:03:22;;;;;;;;;;;;;;;;;;5029229;28;19921;-58
2022/10/08 06:05:48;;;;;;;;;;;;;;;;;;5028785;28;19968;-57
2022/10/08 06:08:14;;;;;;;;;;;;;;;;;;5022828;28;20387;-59
2022/10/08 06:10:40;;;;;;;;;;;;;;;;;;5013150;28;19922;-59
2022/10/08 06:13:06;;;;;;;;;;;;;;;;;;5012154;28;20367;-59
2022/10/08 06:15:32;;;;;;;;;;;;;;;;;;5016886;28;19947;-59
2022/10/08 06:18:00;;;;;;;;;;;;;;;;;;5011529;28;19921;-58
2022/10/08 06:20:26;;;;;;;;;;;;;;;;;;5010161;28;19921;-60
2022/10/08 06:22:52;;;;;;;;;;;;;;;;;;5015141;28;19944;-58
2022/10/08 06:25:18;;;;;;;;;;;;;;;;;;5013152;28;20387;-58
2022/10/08 06:27:44;;;;;;;;;;;;;;;;;;5013402;28;20018;-59
2022/10/08 06:30:10;;;;;;;;;;;;;;;;;;5020341;28;19994;-59
2022/10/08 06:32:36;;;;;;;;;;;;;;;;;;5019876;28;21060;-59
2022/10/08 06:35:02;;;;;;;;;;;;;;;;;;5019691;28;19925;-59
2022/10/08 06:37:29;;;;;;;;;;;;;;;;;;5018550;28;19932;-59
2022/10/08 06:39:55;;;;;;;;;;;;;;;;;;5019004;28;19954;-58
2022/10/08 06:42:21;;;;;;;;;;;;;;;;;;5015092;28;19976;-58
2022/10/08 06:44:47;;;;;;;;;;;;;;;;;;5017219;28;20465;-58
2022/10/08 06:47:13;;;;;;;;;;;;;;;;;;5017786;28;20310;-58
2022/10/08 06:49:42;;;;;;;;;;;;;;;;;;5013938;28;20424;-59
2022/10/08 06:52:08;;;;;;;;;;;;;;;;;;5008445;28;19925;-58
2022/10/08 06:54:34;;;;;;;;;;;;;;;;;;5013485;28;19925;-59
2022/10/08 06:57:00;;;;;;;;;;;;;;;;;;5014509;28;20402;-59
2022/10/08 06:59:26;;;;;;;;;;;;;;;;;;5017475;28;19936;-60
2022/10/08 07:01:52;;;;;;;;;;;;;;;;;;5013370;28;19925;-59
2022/10/08 07:04:18;;;;;;;;;;;;;;;;;;5019715;28;19932;-59
2022/10/08 07:06:44;;;;;;;;;;;;;;;;;;5017670;28;20387;-59
2022/10/08 07:09:12;;;;;;;;;;;;;;;;;;5018204;28;19921;-59
2022/10/08 07:11:38;;;;;;;;;;;;;;;;;;5011265;28;19929;-58
2022/10/08 07:14:04;;;;;;;;;;;;;;;;;;5009367;28;20016;-58
2022/10/08 07:16:30;;;;;;;;;;;;;;;;;;5008503;28;20071;-60
2022/10/08 07:18:57;;;;;;;;;;;;;;;;;;5008319;28;19982;-61
2022/10/08 07:21:23;;;;;;;;;;;;;;;;;;4996614;28;20424;-59
2022/10/08 07:23:49;;;;;;;;;;;;;;;;;;5023850;28;19921;-59
2022/10/08 07:26:15;;;;;;;;;;;;;;;;;;5024360;28;19971;-59
2022/10/08 07:28:41;;;;;;;;;;;;;;;;;;5025261;28;19929;-59
2022/10/08 07:31:07;;;;;;;;;;;;;;;;;;5024526;28;19921;-58
2022/10/08 07:33:33;;;;;;;;;;;;;;;;;;5025396;28;19925;-58
2022/10/08 07:35:59;;;;;;;;;;;;;;;;;;5024679;28;19925;-60
2022/10/08 07:38:25;;;;;;;;;;;;;;;;;;5007552;28;20290;-58
2022/10/08 07:40:51;;;;;;;;;;;;;;;;;;5024706;28;19976;-59
2022/10/08 07:43:17;;;;;;;;;;;;;;;;;;5024139;28;19932;-59
2022/10/08 07:45:43;;;;;;;;;;;;;;;;;;5025283;28;20287;-59
2022/10/08 07:48:09;;;;;;;;;;;;;;;;;;5007407;28;19936;-58
2022/10/08 07:50:35;;;;;;;;;;;;;;;;;;5025240;28;19925;-58
2022/10/08 07:53:01;;;;;;;;;;;;;;;;;;5023071;28;19932;-59
2022/10/08 07:55:27;;;;;;;;;;;;;;;;;;5009724;28;19925;-59
2022/10/08 07:57:53;;;;;;;;;;;;;;;;;;5011583;28;20045;-58
2022/10/08 08:00:19;;;;;;;;;;;;;;;;;;5022319;28;20355;-58
2022/10/08 08:02:45;;;;;;;;;;;;;;;;;;5027668;28;19928;-59
2022/10/08 08:05:11;;;;;;;;;;;;;;;;;;5028865;28;19931;-58
2022/10/08 08:07:37;;;;;;;;;;;;;;;;;;5020378;28;20028;-58
2022/10/08 08:10:03;;;;;;;;;;;;;;;;;;5027364;28;19925;-58
2022/10/08 08:12:29;;;;;;;;;;;;;;;;;;5028449;28;19925;-57
2022/10/08 08:14:55;;;;;;;;;;;;;;;;;;5028781;28;19921;-56
2022/10/08 08:17:21;;;;;;;;;;;;;;;;;;5028853;28;20296;-56
2022/10/08 08:19:47;;;;;;;;;;;;;;;;;;5023314;28;19925;-56
2022/10/08 08:22:13;;;;;;;;;;;;;;;;;;5010785;28;20252;-56
2022/10/08 08:24:39;;;;;;;;;;;;;;;;;;5030123;28;19936;-56
2022/10/08 08:27:05;;;;;;;;;;;;;;;;;;5028774;28;19992;-56
2022/10/08 08:29:31;;;;;;;;;;;;;;;;;;5028085;28;19921;-57
2022/10/08 08:31:57;;;;;;;;;;;;;;;;;;5030190;28;19928;-57
2022/10/08 08:34:23;;;;;;;;;;;;;;;;;;5030893;28;19968;-55
2022/10/08 08:36:50;;;;;;;;;;;;;;;;;;5018390;28;20026;-56
2022/10/08 08:39:16;;;;;;;;;;;;;;;;;;5019158;28;19921;-56
2022/10/08 08:41:42;;;;;;;;;;;;;;;;;;5019991;28;19929;-55
2022/10/08 08:44:08;;;;;;;;;;;;;;;;;;5022227;28;19921;-56
2022/10/08 08:46:35;;;;;;;;;;;;;;;;;;5026327;28;20008;-56
2022/10/08 08:49:01;;;;;;;;;;;;;;;;;;5018147;28;19921;-54
2022/10/08 08:51:27;;;;;;;;;;;;;;;;;;5021855;28;19928;-55
2022/10/08 08:53:53;;;;;;;;;;;;;;;;;;5016499;28;19929;-56
2022/10/08 08:56:19;;;;;;;;;;;;;;;;;;5017679;28;19921;-56
2022/10/08 08:58:45;;;;;;;;;;;;;;;;;;5018692;28;19982;-55
2022/10/08 09:01:11;;;;;;;;;;;;;;;;;;5022918;28;19921;-55
2022/10/08 09:03:39;;;;;;;;;;;;;;;;;;5022814;28;19957;-56
2022/10/08 09:06:08;;;;;;;;;;;;;;;;;;5022970;28;19928;-55
2022/10/08 09:08:34;;;;;;;;;;;;;;;;;;5020486;28;19925;-56
2022/10/08 09:11:01;;;;;;;;;;;;;;;;;;5026583;28;19967;-56
2022/10/08 09:13:27;;;;;;;;;;;;;;;;;;5027386;28;20004;-55
2022/10/08 09:15:54;;;;;;;;;;;;;;;;;;5027595;28;20004;-56
2022/10/08 09:18:20;;;;;;;;;;;;;;;;;;5026673;28;19925;-55
2022/10/08 09:20:46;;;;;;;;;;;;;;;;;;5024724;28;19928;-56
2022/10/08 09:23:13;;;;;;;;;;;;;;;;;;5023249;28;19925;-55
2022/10/08 09:25:39;;;;;;;;;;;;;;;;;;5026279;28;19964;-56
2022/10/08 09:28:05;;;;;;;;;;;;;;;;;;5007917;28;20361;-56
2022/10/08 09:30:31;;;;;;;;;;;;;;;;;;5021498;28;19929;-55
2022/10/08 09:32:57;;;;;;;;;;;;;;;;;;5024557;28;19929;-55
2022/10/08 09:35:23;;;;;;;;;;;;;;;;;;5024851;28;19929;-57
2022/10/08 09:37:50;;;;;;;;;;;;;;;;;;5020538;28;20274;-57
2022/10/08 09:40:16;;;;;;;;;;;;;;;;;;5016320;28;19975;-56
2022/10/08 09:42:42;;;;;;;;;;;;;;;;;;5021855;28;19929;-57
2022/10/08 09:45:08;;;;;;;;;;;;;;;;;;5016477;28;20441;-55
2022/10/08 09:47:34;;;;;;;;;;;;;;;;;;5024395;28;19928;-56
2022/10/08 09:50:00;;;;;;;;;;;;;;;;;;5015702;28;19925;-55
2022/10/08 09:52:26;;;;;;;;;;;;;;;;;;5021544;28;19971;-56
2022/10/08 09:54:52;;;;;;;;;;;;;;;;;;5018055;28;20013;-56
2022/10/08 09:57:18;;;;;;;;;;;;;;;;;;4999415;28;19936;-55
2022/10/08 09:59:44;;;;;;;;;;;;;;;;;;5016611;28;19921;-56
2022/10/08 10:02:10;;;;;;;;;;;;;;;;;;5023164;28;19986;-56
2022/10/08 10:04:36;;;;;;;;;;;;;;;;;;5018864;28;19928;-56
2022/10/08 10:07:02;;;;;;;;;;;;;;;;;;5021017;28;19929;-55
2022/10/08 10:09:28;;;;;;;;;;;;;;;;;;5019975;28;20271;-57
2022/10/08 10:11:54;;;;;;;;;;;;;;;;;;5017368;28;19925;-56
2022/10/08 10:14:20;;;;;;;;;;;;;;;;;;5018744;28;19932;-56
2022/10/08 10:16:46;;;;;;;;;;;;;;;;;;5020709;28;20276;-56
2022/10/08 10:19:12;;;;;;;;;;;;;;;;;;5020409;28;19928;-56
2022/10/08 10:21:38;;;;;;;;;;;;;;;;;;5019905;28;19936;-56
2022/10/08 10:24:04;;;;;;;;;;;;;;;;;;5020366;28;19921;-56
2022/10/08 10:26:30;;;;;;;;;;;;;;;;;;5019846;28;19921;-56
2022/10/08 10:28:56;;;;;;;;;;;;;;;;;;5015620;28;20013;-58
2022/10/08 10:31:22;;;;;;;;;;;;;;;;;;5022384;28;19921;-56
2022/10/08 10:33:48;;;;;;;;;;;;;;;;;;5024107;28;20410;-56
2022/10/08 10:36:14;;;;;;;;;;;;;;;;;;5020343;28;19932;-56
2022/10/08 10:38:40;;;;;;;;;;;;;;;;;;5019976;28;19925;-57
2022/10/08 10:41:06;;;;;;;;;;;;;;;;;;5023105;28;20012;-56
2022/10/08 10:43:32;;;;;;;;;;;;;;;;;;5023293;28;20008;-56
2022/10/08 10:45:58;;;;;;;;;;;;;;;;;;5022039;28;19921;-56
2022/10/08 10:48:24;;;;;;;;;;;;;;;;;;5023879;28;20335;-56
2022/10/08 10:50:50;;;;;;;;;;;;;;;;;;5021642;28;20686;-56
2022/10/08 10:53:16;;;;;;;;;;;;;;;;;;5022011;28;19928;-55
2022/10/08 10:55:42;;;;;;;;;;;;;;;;;;5021623;28;20007;-55
2022/10/08 10:58:09;;;;;;;;;;;;;;;;;;5022606;28;20024;-55
2022/10/08 11:00:35;;;;;;;;;;;;;;;;;;5023385;28;20387;-55
2022/10/08 11:03:01;;;;;;;;;;;;;;;;;;5021650;28;19968;-56
2022/10/08 11:05:27;;;;;;;;;;;;;;;;;;5022765;28;19976;-56
2022/10/08 11:07:53;;;;;;;;;;;;;;;;;;5023361;28;19925;-56
2022/10/08 11:10:19;;;;;;;;;;;;;;;;;;5021526;28;19942;-55
2022/10/08 11:12:45;;;;;;;;;;;;;;;;;;5019383;28;19921;-56
2022/10/08 11:15:11;;;;;;;;;;;;;;;;;;5021606;28;19921;-56
2022/10/08 11:17:37;;;;;;;;;;;;;;;;;;5019627;28;19975;-55
2022/10/08 11:20:03;;;;;;;;;;;;;;;;;;5020486;28;20000;-56
2022/10/08 11:22:29;;;;;;;;;;;;;;;;;;5018898;28;19929;-56
2022/10/08 11:24:55;;;;;;;;;;;;;;;;;;5018461;28;20347;-56
2022/10/08 11:27:21;;;;;;;;;;;;;;;;;;5019775;28;19929;-55
2022/10/08 11:29:47;;;;;;;;;;;;;;;;;;5019264;28;20290;-56
2022/10/08 11:32:13;;;;;;;;;;;;;;;;;;5021865;28;20375;-56
2022/10/08 11:34:39;;;;;;;;;;;;;;;;;;5022281;28;19968;-56
2022/10/08 11:37:05;;;;;;;;;;;;;;;;;;5021043;28;20359;-56
2022/10/08 11:39:31;;;;;;;;;;;;;;;;;;5020219;28;19975;-56
2022/10/08 11:41:57;;;;;;;;;;;;;;;;;;5022614;28;20020;-56
2022/10/08 11:44:25;;;;;;;;;;;;;;;;;;5021351;28;19928;-56
2022/10/08 11:46:51;;;;;;;;;;;;;;;;;;5020816;28;20363;-58
2022/10/08 11:49:17;;;;;;;;;;;;;;;;;;5022716;28;20031;-57
2022/10/08 11:51:43;;;;;;;;;;;;;;;;;;5021340;28;19929;-56
2022/10/08 11:54:11;;;;;;;;;;;;;;;;;;5019969;28;20020;-57
2022/10/08 11:56:37;;;;;;;;;;;;;;;;;;5023241;28;20040;-57
2022/10/08 11:59:03;;;;;;;;;;;;;;;;;;5020101;28;19934;-57
2022/10/08 12:01:29;;;;;;;;;;;;;;;;;;5004132;28;20357;-57
2022/10/08 12:03:55;;;;;;;;;;;;;;;;;;5016617;28;19921;-57
2022/10/08 12:06:21;;;;;;;;;;;;;;;;;;5018528;28;19925;-57
2022/10/08 12:08:48;;;;;;;;;;;;;;;;;;5019736;28;19924;-56
2022/10/08 12:11:14;;;;;;;;;;;;;;;;;;5013703;28;19921;-57
2022/10/08 12:13:40;;;;;;;;;;;;;;;;;;5016003;28;20409;-57
2022/10/08 12:16:06;;;;;;;;;;;;;;;;;;5023785;28;19929;-57
2022/10/08 12:18:32;;;;;;;;;;;;;;;;;;5024238;28;20351;-57
2022/10/08 12:20:58;;;;;;;;;;;;;;;;;;5023765;28;19928;-55
2022/10/08 12:23:25;;;;;;;;;;;;;;;;;;5017273;28;19921;-58
2022/10/08 12:25:51;;;;;;;;;;;;;;;;;;5021778;28;19921;-57
2022/10/08 12:28:17;;;;;;;;;;;;;;;;;;5022290;28;19986;-57
2022/10/08 12:30:43;;;;;;;;;;;;;;;;;;5010685;28;19922;-57
2022/10/08 12:33:09;;;;;;;;;;;;;;;;;;5013602;28;19925;-57
2022/10/08 12:35:35;;;;;;;;;;;;;;;;;;5014915;28;19921;-59
2022/10/08 12:38:01;;;;;;;;;;;;;;;;;;5009632;28;19936;-58
2022/10/08 12:40:27;;;;;;;;;;;;;;;;;;5008293;28;19921;-58
2022/10/08 12:42:53;;;;;;;;;;;;;;;;;;5011695;28;19928;-58
2022/10/08 12:45:19;;;;;;;;;;;;;;;;;;5010970;28;20453;-56
2022/10/08 12:47:45;;;;;;;;;;;;;;;;;;5013958;28;20350;-57
2022/10/08 12:50:11;;;;;;;;;;;;;;;;;;5014436;28;19921;-58
2022/10/08 12:52:37;;;;;;;;;;;;;;;;;;5012357;28;19920;-57
2022/10/08 12:55:03;;;;;;;;;;;;;;;;;;5010944;28;19944;-57
2022/10/08 12:57:29;;;;;;;;;;;;;;;;;;5012932;28;20998;-57
2022/10/08 12:59:55;;;;;;;;;;;;;;;;;;5017161;28;19925;-58
2022/10/08 13:02:21;;;;;;;;;;;;;;;;;;4998155;28;19921;-57
2022/10/08 13:04:47;;;;;;;;;;;;;;;;;;5013049;28;19925;-58
2022/10/08 13:07:13;;;;;;;;;;;;;;;;;;5014810;28;20504;-57
2022/10/08 13:09:39;;;;;;;;;;;;;;;;;;5014041;28;19940;-58
2022/10/08 13:12:05;;;;;;;;;;;;;;;;;;5009740;28;19932;-58
2022/10/08 13:14:31;;;;;;;;;;;;;;;;;;5013076;28;19975;-58
2022/10/08 13:16:57;;;;;;;;;;;;;;;;;;5017401;28;19963;-58
2022/10/08 13:19:23;;;;;;;;;;;;;;;;;;5020869;28;19964;-58
2022/10/08 13:21:49;;;;;;;;;;;;;;;;;;5024117;28;19921;-58
2022/10/08 13:24:15;;;;;;;;;;;;;;;;;;5023455;28;19929;-57
2022/10/08 13:26:41;;;;;;;;;;;;;;;;;;5024948;28;20386;-57
2022/10/08 13:29:07;;;;;;;;;;;;;;;;;;5025159;28;19966;-57
2022/10/08 13:31:33;;;;;;;;;;;;;;;;;;5022344;28;20268;-57
2022/10/08 13:33:59;;;;;;;;;;;;;;;;;;5021870;28;19936;-58
2022/10/08 13:36:25;;;;;;;;;;;;;;;;;;5019278;28;19944;-57
2022/10/08 13:38:51;;;;;;;;;;;;;;;;;;5020646;28;19974;-57
2022/10/08 13:41:22;;;;;;;;;;;;;;;;;;5022555;28;19921;-57
2022/10/08 13:43:48;;;;;;;;;;;;;;;;;;5023612;28;20017;-58
2022/10/08 13:46:14;;;;;;;;;;;;;;;;;;5022912;28;19925;-58
2022/10/08 13:48:40;;;;;;;;;;;;;;;;;;5024195;28;19929;-57
2022/10/08 13:51:06;;;;;;;;;;;;;;;;;;5023740;28;19936;-57
2022/10/08 13:53:32;;;;;;;;;;;;;;;;;;5019862;28;19921;-57
2022/10/08 13:55:58;;;;;;;;;;;;;;;;;;5011243;28;20360;-58
2022/10/08 13:58:24;;;;;;;;;;;;;;;;;;5013866;28;19921;-57
2022/10/08 14:00:50;;;;;;;;;;;;;;;;;;5023558;28;20016;-57
2022/10/08 14:03:16;;;;;;;;;;;;;;;;;;5020100;28;20004;-57
2022/10/08 14:05:42;;;;;;;;;;;;;;;;;;5019542;28;20015;-56
2022/10/08 14:08:08;;;;;;;;;;;;;;;;;;5017695;28;21575;-58
2022/10/08 14:10:34;;;;;;;;;;;;;;;;;;5021226;28;19925;-58
2022/10/08 14:13:00;;;;;;;;;;;;;;;;;;5016989;28;19929;-58
2022/10/08 14:15:26;;;;;;;;;;;;;;;;;;5017191;28;20019;-58
2022/10/08 14:17:52;;;;;;;;;;;;;;;;;;5018223;28;19971;-57
2022/10/08 14:20:18;;;;;;;;;;;;;;;;;;5000166;28;19948;-57
2022/10/08 14:22:45;;;;;;;;;;;;;;;;;;5019013;28;20291;-57
2022/10/08 14:25:11;;;;;;;;;;;;;;;;;;5021701;28;20489;-57
2022/10/08 14:27:37;;;;;;;;;;;;;;;;;;5018828;28;19999;-56
2022/10/08 14:30:03;;;;;;;;;;;;;;;;;;5025731;28;19975;-57
2022/10/08 14:32:29;;;;;;;;;;;;;;;;;;5025704;28;19943;-57
2022/10/08 14:34:55;;;;;;;;;;;;;;;;;;5008172;28;20627;-57
2022/10/08 14:37:21;;;;;;;;;;;;;;;;;;5025001;28;19929;-57
2022/10/08 14:39:47;;;;;;;;;;;;;;;;;;5024764;28;19925;-56
2022/10/08 14:42:13;;;;;;;;;;;;;;;;;;5025509;28;20363;-57
2022/10/08 14:44:39;;;;;;;;;;;;;;;;;;5025932;28;20048;-57
2022/10/08 14:47:05;;;;;;;;;;;;;;;;;;5025247;28;19935;-56
2022/10/08 14:49:31;;;;;;;;;;;;;;;;;;5025487;28;19929;-57
2022/10/08 14:51:57;;;;;;;;;;;;;;;;;;5024296;28;19925;-57
2022/10/08 14:54:24;;;;;;;;;;;;;;;;;;5023508;28;19931;-57
2022/10/08 14:56:50;;;;;;;;;;;;;;;;;;5025449;28;19932;-57
2022/10/08 14:59:17;;;;;;;;;;;;;;;;;;5025629;28;19932;-57
2022/10/08 15:01:43;;;;;;;;;;;;;;;;;;5025501;28;19921;-57
2022/10/08 15:04:09;;;;;;;;;;;;;;;;;;5025471;28;20385;-57
2022/10/08 15:06:36;;;;;;;;;;;;;;;;;;5026145;28;20371;-57
2022/10/08 15:09:02;;;;;;;;;;;;;;;;;;5024134;28;20501;-57
2022/10/08 15:11:28;;;;;;;;;;;;;;;;;;5025774;28;20025;-58
2022/10/08 15:13:54;;;;;;;;;;;;;;;;;;5025863;28;19929;-58
2022/10/08 15:16:20;;;;;;;;;;;;;;;;;;5024814;28;19968;-56
2022/10/08 15:18:46;;;;;;;;;;;;;;;;;;5025732;28;20022;-56
2022/10/08 15:21:13;;;;;;;;;;;;;;;;;;5025034;28;19947;-57
2022/10/08 15:23:39;;;;;;;;;;;;;;;;;;5024355;28;19925;-58
2022/10/08 15:26:05;;;;;;;;;;;;;;;;;;5025293;28;19932;-58
2022/10/08 15:28:31;;;;;;;;;;;;;;;;;;5025151;28;19932;-57
2022/10/08 15:30:57;;;;;;;;;;;;;;;;;;5025360;28;19925;-57
2022/10/08 15:33:23;;;;;;;;;;;;;;;;;;5025164;28;20268;-56
2022/10/08 15:35:49;;;;;;;;;;;;;;;;;;5024593;28;19932;-57
2022/10/08 15:38:15;;;;;;;;;;;;;;;;;;5023637;28;19925;-53
2022/10/08 15:40:41;;;;;;;;;;;;;;;;;;5024994;28;19936;-57
2022/10/08 15:43:07;;;;;;;;;;;;;;;;;;5020570;28;19921;-57
2022/10/08 15:45:33;;;;;;;;;;;;;;;;;;5006369;28;20389;-56
2022/10/08 15:47:59;;;;;;;;;;;;;;;;;;5024856;28;19925;-57
2022/10/08 15:50:25;;;;;;;;;;;;;;;;;;5025181;28;19940;-57
2022/10/08 15:52:51;;;;;;;;;;;;;;;;;;5024392;28;19932;-58
2022/10/08 15:55:17;;;;;;;;;;;;;;;;;;5025136;28;19925;-57
2022/10/08 15:57:43;;;;;;;;;;;;;;;;;;5024057;28;19925;-57
2022/10/08 16:00:09;;;;;;;;;;;;;;;;;;5024409;28;19925;-57
2022/10/08 16:02:35;;;;;;;;;;;;;;;;;;5024855;28;19928;-57
2022/10/08 16:05:01;;;;;;;;;;;;;;;;;;5024142;28;19936;-57
2022/10/08 16:07:27;;;;;;;;;;;;;;;;;;5024593;28;19925;-58
2022/10/08 16:09:53;;;;;;;;;;;;;;;;;;5024113;28;20378;-58
2022/10/08 16:12:19;;;;;;;;;;;;;;;;;;5024056;28;19928;-57
2022/10/08 16:14:45;;;;;;;;;;;;;;;;;;5022556;28;19925;-57
2022/10/08 16:17:11;;;;;;;;;;;;;;;;;;5028384;28;19932;-57
2022/10/08 16:19:37;;;;;;;;;;;;;;;;;;5028924;28;19928;-57
2022/10/08 16:22:04;;;;;;;;;;;;;;;;;;5027415;28;19932;-58
2022/10/08 16:24:30;;;;;;;;;;;;;;;;;;5027750;28;20014;-57
2022/10/08 16:26:56;;;;;;;;;;;;;;;;;;5025302;28;19982;-57
2022/10/08 16:29:22;;;;;;;;;;;;;;;;;;5015675;28;20091;-57
2022/10/08 16:31:48;;;;;;;;;;;;;;;;;;5024490;28;20414;-56
2022/10/08 16:34:14;;;;;;;;;;;;;;;;;;5027827;28;19920;-57
2022/10/08 16:36:40;;;;;;;;;;;;;;;;;;5027719;28;20359;-56